Time;durP1;ratioP1;P1;durP2;ratioP2;P2;SDS_P1;SDS_P2;PMS_P1;PMS_P2;Temp;Humidity;BMP_temperature;BMP_pressure;BME280_temperature;BME280_humidity;BME280_pressure;Samples;Min_cycle;Max_cycle;Signal;HPM_P1;HPM_P2
2022/04/01 00:02:28;;;;;;;;;;;;;;;;;;;;;
2022/04/01 00:05:38;;;;;;;2.28;0.70;;;1.40;99.90;;;;;;5058672;28;20041;-86
2022/04/01 00:08:58;;;;;;;;;;;;;;;;;;;;;
2022/04/01 00:12:20;;;;;;;;;;;;;;;;;;;;;
2022/04/01 00:16:03;;;;;;;1.25;0.50;;;1.30;99.90;;;;;;5018848;28;20045;-88
2022/04/01 00:18:40;;;;;;;0.70;0.40;;;1.30;99.90;;;;;;5065598;28;20067;-87
2022/04/01 00:21:23;;;;;;;1.30;0.70;;;1.30;99.90;;;;;;5078518;28;20049;-88
2022/04/01 00:24:44;;;;;;;;;;;;;;;;;;;;;
2022/04/01 00:27:49;;;;;;;2.55;0.60;;;1.30;99.90;;;;;;5043699;28;20060;-88
2022/04/01 00:31:20;;;;;;;;;;;;;;;;;;;;;
2022/04/01 00:34:41;;;;;;;1.20;0.73;;;1.30;99.90;;;;;;5062694;28;20044;-85
2022/04/01 00:41:27;;;;;;;2.47;0.50;;;1.40;99.90;;;;;;5075252;28;20124;-86
2022/04/01 00:44:50;;;;;;;6.30;0.60;;;1.40;99.90;;;;;;5076651;28;20134;-87
2022/04/01 00:48:24;;;;;;;;;;;;;;;;;;;;;
2022/04/01 00:51:42;;;;;;;;;;;;;;;;;;;;;
2022/04/01 00:55:06;;;;;;;2.63;0.68;;;1.50;99.90;;;;;;5063046;28;20048;-87
2022/04/01 01:13:22;;;;;;;2.70;0.57;;;1.60;99.90;;;;;;5062038;28;20137;-86
2022/04/01 01:16:49;;;;;;;3.83;0.60;;;1.70;99.90;;;;;;5060409;28;20127;-83
2022/04/01 01:19:55;;;;;;;1.88;0.60;;;1.70;99.90;;;;;;5070552;28;20044;-84
2022/04/01 01:23:09;;;;;;;2.70;0.80;;;1.70;99.90;;;;;;5031414;28;20048;-83
2022/04/01 01:26:18;;;;;;;2.60;0.88;;;1.60;99.90;;;;;;5078049;28;20049;-85
2022/04/01 01:29:45;;;;;;;0.95;0.50;;;1.60;99.90;;;;;;5011704;28;20426;-85
2022/04/01 01:32:42;;;;;;;2.33;0.47;;;1.70;99.90;;;;;;5076591;28;20051;-85
2022/04/01 01:36:12;;;;;;;1.58;0.57;;;1.70;99.90;;;;;;5075883;28;20048;-84
2022/04/01 01:39:25;;;;;;;2.40;0.60;;;1.70;99.90;;;;;;5082308;28;20049;-84
2022/04/01 01:42:32;;;;;;;4.03;0.65;;;1.70;99.90;;;;;;5042138;28;20483;-85
2022/04/01 01:45:34;;;;;;;1.60;0.70;;;1.80;99.90;;;;;;5023362;28;20051;-85
2022/04/01 01:48:42;;;;;;;2.78;0.60;;;1.80;99.90;;;;;;5077418;28;20064;-84
2022/04/01 01:55:02;;;;;;;;;;;;;;;;;;;;;
2022/04/01 01:58:28;;;;;;;;;;;;;;;;;;;;;
2022/04/01 02:02:13;;;;;;;0.88;0.57;;;1.80;99.90;;;;;;5080421;28;20037;-85
2022/04/01 02:05:23;;;;;;;5.40;0.60;;;1.80;99.90;;;;;;5076134;28;20044;-85
2022/04/01 02:08:24;;;;;;;1.45;0.63;;;1.70;99.90;;;;;;5068537;28;20597;-85
2022/04/01 02:11:25;;;;;;;3.33;0.55;;;1.70;99.90;;;;;;5053036;28;20044;-86
2022/04/01 02:15:38;;;;;;;6.05;0.80;;;1.70;99.90;;;;;;5049970;28;20155;-85
2022/04/01 02:18:43;;;;;;;;;;;;;;;;;;;;;
2022/04/01 02:22:14;;;;;;;4.45;0.80;;;1.70;99.90;;;;;;5079536;28;20049;-84
2022/04/01 02:25:27;;;;;;;;;;;;;;;;;;;;;
2022/04/01 02:28:56;;;;;;;;;;;;;;;;;;;;;
2022/04/01 02:32:12;;;;;;;;;;;;;;;;;;;;;
2022/04/01 02:35:26;;;;;;;;;;;;;;;;;;;;;
2022/04/01 02:42:22;;;;;;;3.42;0.65;;;1.70;99.90;;;;;;5078167;28;20112;-85
2022/04/01 02:45:33;;;;;;;3.30;0.60;;;1.70;99.90;;;;;;5030709;28;20052;-84
2022/04/01 02:48:42;;;;;;;1.25;0.52;;;1.70;99.90;;;;;;5082617;28;21635;-86
2022/04/01 02:51:46;;;;;;;2.10;0.73;;;1.70;99.90;;;;;;5059911;28;20053;-85
2022/04/01 02:54:52;;;;;;;2.67;0.50;;;1.70;99.90;;;;;;5077453;28;20051;-83
2022/04/01 02:57:59;;;;;;;1.98;0.50;;;1.90;99.90;;;;;;5071597;28;20043;-86
2022/04/01 03:08:48;;;;;;;0.52;0.30;;;1.60;99.90;;;;;;5080564;28;20556;-87
2022/04/01 03:11:54;;;;;;;;;;;;;;;;;;;;;
2022/04/01 03:14:55;;;;;;;3.50;0.60;;;1.60;99.90;;;;;;5024367;28;20050;-87
2022/04/01 03:17:50;;;;;;;3.78;0.50;;;1.60;99.90;;;;;;5042615;28;20527;-85
2022/04/01 03:20:52;;;;;;;3.60;0.52;;;1.70;99.90;;;;;;5032254;28;20060;-85
2022/04/01 03:24:02;;;;;;;2.10;0.50;;;1.70;99.90;;;;;;5040682;28;20076;-86
2022/04/01 03:38:35;;;;;;;5.07;0.50;;;1.60;99.90;;;;;;5035177;28;20577;-85
2022/04/01 03:42:11;;;;;;;;;;;;;;;;;;;;;
2022/04/01 03:45:14;;;;;;;2.83;0.60;;;1.70;99.90;;;;;;5042915;28;20041;-87
2022/04/01 03:48:47;;;;;;;1.60;0.50;;;1.70;99.90;;;;;;5039541;28;20503;-87
2022/04/01 03:51:57;;;;;;;0.60;0.40;;;1.70;99.90;;;;;;4934574;28;20055;-87
2022/04/01 03:55:26;;;;;;;3.05;0.73;;;1.80;99.90;;;;;;4943514;29;20059;-87
2022/04/01 04:17:21;;;;;;;1.65;0.50;;;1.80;99.90;;;;;;4964601;28;20043;-86
2022/04/01 04:20:49;;;;;;;;;;;;;;;;;;;;;
2022/04/01 04:24:16;;;;;;;2.78;0.63;;;1.80;99.90;;;;;;4980960;28;20433;-86
2022/04/01 04:27:44;;;;;;;2.42;0.50;;;1.80;99.90;;;;;;4978044;28;20488;-85
2022/04/01 04:31:04;;;;;;;;;;;;;;;;;;;;;
2022/04/01 04:37:41;;;;;;;0.98;0.85;;;1.80;99.90;;;;;;5035035;28;20071;-85
2022/04/01 04:40:57;;;;;;;1.75;0.68;;;1.90;99.90;;;;;;4982623;28;20046;-87
2022/04/01 04:44:30;;;;;;;;;;;;;;;;;;;;;
2022/04/01 04:47:41;;;;;;;2.42;0.55;;;1.90;99.90;;;;;;5030853;28;20207;-86
2022/04/01 04:51:03;;;;;;;;;;;;;;;;;;;;;
2022/04/01 04:54:35;;;;;;;2.33;0.63;;;1.90;99.90;;;;;;5039013;28;20127;-87
2022/04/01 05:01:10;;;;;;;3.00;0.47;;;1.80;99.90;;;;;;5034823;28;20052;-87
2022/04/01 05:05:05;;;;;;;;;;;;;;;;;;;;;
2022/04/01 05:08:28;;;;;;;1.75;0.50;;;1.80;99.90;;;;;;5034689;28;20124;-87
2022/04/01 05:11:56;;;;;;;2.25;0.77;;;1.80;99.90;;;;;;5040852;28;20057;-88
2022/04/01 05:15:28;;;;;;;2.67;0.60;;;1.90;99.90;;;;;;5019865;28;20139;-87
2022/04/01 05:19:04;;;;;;;;;;;;;;;;;;;;;
2022/04/01 05:22:14;;;;;;;0.63;0.40;;;1.90;99.90;;;;;;5069098;28;20306;-88
2022/04/01 05:25:37;;;;;;;2.80;0.47;;;1.80;99.90;;;;;;5073500;28;20399;-87
2022/04/01 05:29:17;;;;;;;;;;;;;;;;;;;;;
2022/04/01 05:32:21;;;;;;;1.40;0.52;;;1.80;99.90;;;;;;5050737;28;20079;-87
2022/04/01 05:35:39;;;;;;;;;;;;;;;;;;;;;
2022/04/01 05:39:00;;;;;;;;;;;;;;;;;;;;;
2022/04/01 05:42:06;;;;;;;1.88;0.52;;;1.90;99.90;;;;;;5075828;28;20094;-85
2022/04/01 05:45:24;;;;;;;;;;;;;;;;;;;;;
2022/04/01 05:48:17;;;;;;;1.77;0.60;;;1.90;99.90;;;;;;5074201;28;20051;-86
2022/04/01 05:51:25;;;;;;;2.05;0.70;;;1.90;99.90;;;;;;5078149;28;20418;-83
2022/04/01 05:54:12;;;;;;;3.58;0.65;;;1.90;99.90;;;;;;5077573;28;20497;-83
2022/04/01 05:57:31;;;;;;;3.50;0.50;;;1.90;99.90;;;;;;5080733;28;20084;-84
2022/04/01 06:00:59;;;;;;;4.80;0.50;;;1.80;99.90;;;;;;5076353;28;20046;-85
2022/04/01 06:04:12;;;;;;;0.82;0.43;;;1.90;99.90;;;;;;5075798;28;20040;-81
2022/04/01 06:12:19;;;;;;;;;;;;;;;;;;;;;
2022/04/01 06:31:37;;;;;;;1.05;0.57;;;2.00;99.90;;;;;;5040880;28;20044;-85
2022/04/01 06:49:38;;;;;;;1.00;0.50;;;2.20;99.90;;;;;;4990091;28;20046;-82
2022/04/01 07:37:26;;;;;;;;;;;;;;;;;;;;;
2022/04/01 07:40:40;;;;;;;0.60;0.40;;;2.30;99.90;;;;;;4998164;28;20051;-84
2022/04/01 07:54:04;;;;;;;3.10;0.65;;;2.50;99.90;;;;;;4953099;28;20044;-85
2022/04/01 07:57:59;;;;;;;1.50;0.75;;;2.60;99.90;;;;;;4943573;29;20047;-84
2022/04/01 08:00:54;;;;;;;2.35;0.50;;;2.40;99.90;;;;;;4948583;28;20518;-84
2022/04/01 08:07:44;;;;;;;2.78;0.68;;;2.10;99.90;;;;;;4884400;29;20120;-85
2022/04/01 08:11:17;;;;;;;0.95;0.60;;;2.40;99.90;;;;;;4878328;29;20064;-85
2022/04/01 08:27:13;;;;;;;1.05;0.50;;;2.00;99.90;;;;;;4865440;29;20040;-86
2022/04/01 08:33:58;;;;;;;;;;;;;;;;;;;;;
2022/04/01 09:01:23;;;;;;;;;;;;;;;;;;;;;
2022/04/01 09:43:15;;;;;;;1.30;0.60;;;3.50;99.90;;;;;;5037940;23;20055;-87
2022/04/01 09:47:21;;;;;;;;;;;;;;;;;;;;;
2022/04/01 10:12:06;;;;;;;;;;;;;;;;;;;;;
2022/04/01 10:20:12;;;;;;;;;;;;;;;;;;;;;
2022/04/01 10:22:49;;;;;;;1.30;0.50;;;4.50;99.90;;;;;;4825797;29;20574;-86
2022/04/01 10:33:17;;;;;;;;;;;;;;;;;;;;;
2022/04/01 10:37:02;;;;;;;;;;;;;;;;;;;;;
2022/04/01 10:40:34;;;;;;;0.50;0.30;;;4.80;99.90;;;;;;4961959;28;20073;-85
2022/04/01 10:43:47;;;;;;;;;;;;;;;;;;;;;
2022/04/01 10:54:03;;;;;;;;;;;;;;;;;;;;;
2022/04/01 10:57:00;;;;;;;2.58;0.47;;;4.90;99.90;;;;;;4959582;28;20070;-83
2022/04/01 10:59:54;;;;;;;1.15;0.40;;;4.90;98.30;;;;;;4967559;28;20608;-83
2022/04/01 11:02:50;;;;;;;0.77;0.32;;;4.90;96.40;;;;;;4960245;28;20099;-83
2022/04/01 11:05:54;;;;;;;0.50;0.30;;;5.20;96.60;;;;;;4980000;28;20042;-84
2022/04/01 11:09:12;;;;;;;0.55;0.30;;;5.50;96.70;;;;;;4975945;28;20050;-85
2022/04/01 11:16:15;;;;;;;0.30;0.30;;;5.10;96.60;;;;;;4922438;29;20070;-86
2022/04/01 11:19:17;;;;;;;0.47;0.30;;;4.80;98.50;;;;;;4907403;29;20052;-82
2022/04/01 11:21:47;;;;;;;1.50;0.50;;;5.00;99.20;;;;;;4885362;29;20492;-84
2022/04/01 11:24:41;;;;;;;0.90;0.60;;;5.00;96.80;;;;;;4853846;29;20532;-83
2022/04/01 11:27:30;;;;;;;1.35;0.60;;;5.00;99.90;;;;;;4861723;29;20048;-83
2022/04/01 11:33:38;;;;;;;1.77;0.52;;;5.30;99.90;;;;;;4858646;29;20080;-82
2022/04/01 11:36:19;;;;;;;0.70;0.40;;;5.30;99.90;;;;;;4859605;29;20599;-83
2022/04/01 11:38:51;;;;;;;2.42;0.60;;;5.20;99.90;;;;;;4865239;29;20052;-82
2022/04/01 11:41:36;;;;;;;1.65;0.60;;;5.30;99.90;;;;;;4853526;29;20049;-83
2022/04/01 11:44:23;;;;;;;2.50;0.60;;;5.30;99.90;;;;;;4867221;29;20057;-82
2022/04/01 11:47:08;;;;;;;2.22;0.55;;;5.30;99.90;;;;;;4867588;29;20492;-83
2022/04/01 11:49:38;;;;;;;6.57;0.65;;;5.40;99.90;;;;;;4863713;29;20045;-84
2022/04/01 11:52:10;;;;;;;2.30;0.50;;;5.30;99.90;;;;;;4920284;29;20048;-84
2022/04/01 11:54:51;;;;;;;1.10;0.47;;;5.20;99.90;;;;;;4917204;29;20169;-83
2022/04/01 11:57:35;;;;;;;5.40;0.70;;;5.20;99.90;;;;;;4940015;28;20059;-84
2022/04/01 12:00:39;;;;;;;0.75;0.52;;;5.30;99.90;;;;;;4963066;28;20047;-82
2022/04/01 12:03:50;;;;;;;0.88;0.65;;;6.20;99.90;;;;;;4958854;28;20043;-86
2022/04/01 12:09:31;;;;;;;2.05;0.70;;;5.30;99.90;;;;;;4954324;28;20057;-83
2022/04/01 12:12:02;;;;;;;9.10;0.82;;;5.60;99.90;;;;;;4954905;28;20051;-82
2022/04/01 12:14:33;;;;;;;1.88;0.80;;;5.50;99.90;;;;;;4965850;28;20388;-82
2022/04/01 12:17:22;;;;;;;4.05;0.60;;;5.10;99.90;;;;;;4954920;28;20486;-83
2022/04/01 12:20:20;;;;;;;2.17;0.70;;;5.70;99.90;;;;;;4955260;28;20048;-83
2022/04/01 12:22:57;;;;;;;5.13;0.63;;;5.60;99.90;;;;;;4958744;28;20055;-82
2022/04/01 12:25:29;;;;;;;1.20;0.60;;;5.60;99.90;;;;;;4969093;28;20130;-82
2022/04/01 12:28:10;;;;;;;2.25;0.70;;;5.40;99.90;;;;;;4965962;28;20051;-83
2022/04/01 12:31:13;;;;;;;;;;;;;;;;;;;;;
2022/04/01 12:38:42;;;;;;;2.15;0.60;;;5.40;99.90;;;;;;4958852;28;20521;-87
2022/04/01 12:42:04;;;;;;;2.67;0.50;;;5.10;99.90;;;;;;4954825;28;20051;-84
2022/04/01 12:44:51;;;;;;;1.15;0.65;;;5.40;99.90;;;;;;4954621;28;20089;-84
2022/04/01 12:47:30;;;;;;;2.72;0.63;;;5.40;99.90;;;;;;4944457;28;20139;-84
2022/04/01 12:50:36;;;;;;;;;;;;;;;;;;;;;
2022/04/01 13:01:29;;;;;;;1.27;0.52;;;5.40;99.90;;;;;;4954053;28;20410;-83
2022/04/01 13:04:45;;;;;;;1.55;0.60;;;5.40;99.90;;;;;;4917429;28;20180;-84
2022/04/01 13:08:19;;;;;;;;;;;;;;;;;;;;;
2022/04/01 13:15:33;;;;;;;1.40;0.50;;;5.00;99.90;;;;;;4844039;29;20061;-85
2022/04/01 13:18:53;;;;;;;1.00;0.50;;;5.40;99.90;;;;;;4831864;29;20053;-83
2022/04/01 13:21:39;;;;;;;1.58;0.50;;;5.40;99.90;;;;;;4842736;29;20060;-83
2022/04/01 13:24:33;;;;;;;1.48;0.75;;;5.40;99.90;;;;;;4848018;29;20097;-85
2022/04/01 13:27:50;;;;;;;1.35;0.70;;;5.30;99.90;;;;;;4850697;29;20045;-83
2022/04/01 13:31:42;;;;;;;3.35;0.70;;;5.30;99.90;;;;;;4846621;29;20041;-85
2022/04/01 13:34:53;;;;;;;1.55;0.75;;;5.20;99.90;;;;;;4941544;23;20849;-84
2022/04/01 13:38:30;;;;;;;;;;;;;;;;;;;;;
2022/04/01 13:45:39;;;;;;;3.90;0.90;;;5.50;99.90;;;;;;4925530;29;20123;-85
2022/04/01 13:48:57;;;;;;;1.30;0.55;;;5.50;99.90;;;;;;4913417;29;20055;-85
2022/04/01 14:03:54;;;;;;;3.53;0.60;;;5.50;99.90;;;;;;4984736;23;20153;-84
2022/04/01 14:07:37;;;;;;;1.13;0.57;;;5.40;99.90;;;;;;4911510;29;20086;-86
2022/04/01 14:49:46;;;;;;;;;;;;;;;;;;;;;
2022/04/01 15:01:17;;;;;;;1.77;0.95;;;5.40;99.90;;;;;;4746637;30;20080;-84
2022/04/01 15:08:48;;;;;;;;;;;;;;;;;;;;;
2022/04/01 15:15:54;;;;;;;3.25;0.90;;;5.00;99.90;;;;;;4975781;28;20054;-84
2022/04/01 15:39:17;;;;;;;2.50;0.65;;;5.20;99.90;;;;;;5080389;22;20053;-85
2022/04/01 15:46:38;;;;;;;4.32;1.00;;;4.90;99.90;;;;;;4990256;28;20074;-85
2022/04/01 15:49:57;;;;;;;2.90;0.70;;;4.90;99.90;;;;;;4989992;28;20050;-85
2022/04/01 15:52:56;;;;;;;1.30;0.60;;;5.30;99.90;;;;;;4995188;28;20435;-84
2022/04/01 15:56:14;;;;;;;3.47;0.65;;;5.00;99.90;;;;;;4962122;28;20046;-85
2022/04/01 15:59:48;;;;;;;;;;;;;;;;;;;;;
2022/04/01 16:03:16;;;;;;;2.08;0.70;;;4.90;99.90;;;;;;4998524;28;20253;-85
2022/04/01 16:06:48;;;;;;;1.70;0.70;;;4.90;99.90;;;;;;4982002;28;20058;-85
2022/04/01 16:10:15;;;;;;;;;;;;;;;;;;;;;
2022/04/01 16:17:07;;;;;;;5.97;0.73;;;4.90;99.90;;;;;;4988904;28;20487;-85
2022/04/01 16:20:14;;;;;;;;;;;;;;;;;;;;;
2022/04/01 16:23:19;;;;;;;1.00;0.68;;;4.80;99.90;;;;;;5054690;28;19966;-84
2022/04/01 16:26:36;;;;;;;;;;;;;;;;;;;;;
2022/04/01 16:30:05;;;;;;;5.38;1.33;;;5.00;99.90;;;;;;5064674;28;20032;-85
2022/04/01 16:33:28;;;;;;;;;;;;;;;;;;;;;
2022/04/01 16:37:09;;;;;;;1.27;0.60;;;5.00;99.90;;;;;;5071582;28;20524;-85
2022/04/01 16:40:10;;;;;;;;;;;;;;;;;;;;;
2022/04/01 16:43:22;;;;;;;1.67;0.50;;;4.80;99.90;;;;;;5026071;28;20450;-85
2022/04/01 16:46:36;;;;;;;2.22;0.75;;;4.80;99.90;;;;;;5029808;28;20113;-88
2022/04/01 16:49:47;;;;;;;;;;;;;;;;;;;;;
2022/04/01 16:53:33;;;;;;;1.73;0.68;;;4.70;99.90;;;;;;5042350;28;20050;-86
2022/04/01 17:03:59;;;;;;;4.43;0.80;;;4.70;99.90;;;;;;5042851;28;20087;-86
2022/04/01 17:13:59;;;;;;;;;;;;;;;;;;;;;
2022/04/01 17:21:04;;;;;;;2.30;0.70;;;4.30;99.90;;;;;;5010202;28;20687;-84
2022/04/01 17:24:23;;;;;;;1.42;0.70;;;4.70;99.90;;;;;;4962013;28;20565;-85
2022/04/01 17:27:21;;;;;;;3.80;0.80;;;4.50;99.90;;;;;;4950394;28;20090;-85
2022/04/01 17:30:06;;;;;;;2.15;0.70;;;4.50;99.90;;;;;;4935750;28;20055;-86
2022/04/01 17:33:06;;;;;;;2.25;0.60;;;4.40;99.90;;;;;;4969923;28;20094;-86
2022/04/01 17:36:12;;;;;;;1.83;0.80;;;4.40;99.90;;;;;;4945619;28;20047;-85
2022/04/01 17:39:11;;;;;;;1.38;0.88;;;4.30;99.90;;;;;;4949857;28;20093;-85
2022/04/01 17:41:53;;;;;;;2.40;0.70;;;4.20;99.90;;;;;;4977437;28;20117;-85
2022/04/01 17:44:58;;;;;;;3.63;0.70;;;3.90;99.90;;;;;;4974356;28;20053;-88
2022/04/01 17:48:06;;;;;;;2.08;0.80;;;4.20;99.90;;;;;;4987226;28;20402;-91
2022/04/01 17:51:34;;;;;;;;;;;;;;;;;;;;;
2022/04/01 17:54:47;;;;;;;1.38;0.70;;;4.00;99.90;;;;;;5067872;28;20040;-91
2022/04/01 17:57:52;;;;;;;4.97;0.60;;;4.20;99.90;;;;;;5047206;28;20048;-86
2022/04/01 18:01:29;;;;;;;2.17;0.70;;;3.90;99.90;;;;;;5089866;28;20044;-85
2022/04/01 18:04:36;;;;;;;0.82;0.60;;;3.80;99.90;;;;;;5085920;28;20047;-84
2022/04/01 18:07:38;;;;;;;;;;;;;;;;;;;;;
2022/04/01 18:10:36;;;;;;;1.77;0.80;;;3.80;99.90;;;;;;5083645;28;20047;-83
2022/04/01 18:13:35;;;;;;;1.33;0.77;;;3.70;99.90;;;;;;5088748;28;20051;-84
2022/04/01 18:16:37;;;;;;;2.03;0.80;;;3.70;99.90;;;;;;5074143;28;20055;-85
2022/04/01 18:20:09;;;;;;;5.85;0.95;;;3.60;99.90;;;;;;5087825;28;20399;-85
2022/04/01 18:23:22;;;;;;;1.50;0.65;;;3.70;99.90;;;;;;5083269;28;20104;-84
2022/04/01 18:26:57;;;;;;;;;;;;;;;;;;;;;
2022/04/01 18:30:06;;;;;;;3.30;0.60;;;3.50;99.90;;;;;;5085501;28;20047;-84
2022/04/01 18:33:30;;;;;;;2.13;0.70;;;3.50;99.90;;;;;;5084771;28;20086;-89
2022/04/01 18:36:54;;;;;;;;;;;;;;;;;;;;;
2022/04/01 18:40:34;;;;;;;1.33;0.80;;;3.40;99.90;;;;;;5086816;28;20059;-87
2022/04/01 18:47:42;;;;;;;;;;;;;;;;;;;;;
2022/04/01 18:50:49;;;;;;;2.85;0.60;;;3.20;99.90;;;;;;5076940;28;20130;-89
2022/04/01 18:54:17;;;;;;;2.15;0.65;;;3.10;99.90;;;;;;5071339;28;20096;-89
2022/04/01 18:57:38;;;;;;;;;;;;;;;;;;;;;
2022/04/01 19:00:53;;;;;;;2.67;0.60;;;3.00;99.90;;;;;;5032727;28;20048;-86
2022/04/01 19:04:24;;;;;;;6.07;0.85;;;3.00;99.90;;;;;;5070002;28;20091;-86
2022/04/01 19:12:15;;;;;;;2.00;0.75;;;2.90;99.90;;;;;;5071595;28;20043;-90
2022/04/01 19:15:38;;;;;;;;;;;;;;;;;;;;;
2022/04/01 19:22:15;;;;;;;1.33;0.60;;;2.60;99.90;;;;;;4987767;28;20440;-88
2022/04/01 19:24:52;;;;;;;1.15;0.80;;;2.50;99.90;;;;;;4992996;28;20409;-87
2022/04/01 19:27:39;;;;;;;0.75;0.50;;;2.50;99.90;;;;;;4977120;28;20042;-87
2022/04/01 19:30:13;;;;;;;1.58;0.70;;;2.40;99.90;;;;;;5008806;28;20450;-85
2022/04/01 19:32:50;;;;;;;3.67;1.00;;;2.00;99.90;;;;;;5009382;28;20085;-87
2022/04/01 19:35:19;;;;;;;2.42;0.80;;;2.30;99.90;;;;;;4992618;28;20053;-86
2022/04/01 19:37:54;;;;;;;1.15;0.63;;;2.20;99.90;;;;;;4993623;28;20057;-86
2022/04/01 19:41:05;;;;;;;3.05;0.90;;;3.50;99.90;;;;;;4992497;28;20124;-87
2022/04/01 19:47:55;;;;;;;;;;;;;;;;;;;;;
2022/04/01 19:55:23;;;;;;;1.77;0.80;;;1.80;99.90;;;;;;5020565;28;20084;-86
2022/04/01 19:58:54;;;;;;;1.02;0.50;;;1.70;99.90;;;;;;5060130;28;20123;-84
2022/04/01 20:02:19;;;;;;;1.33;0.60;;;1.60;99.90;;;;;;5089645;28;20036;-88
2022/04/01 20:05:38;;;;;;;;;;;;;;;;;;;;;
2022/04/01 20:09:07;;;;;;;1.95;0.77;;;1.50;99.90;;;;;;5086567;28;20040;-84
2022/04/01 20:12:36;;;;;;;1.10;0.70;;;1.40;99.90;;;;;;5085066;28;20051;-89
2022/04/01 20:15:36;;;;;;;1.48;0.75;;;1.40;99.90;;;;;;5053113;28;20053;-87
2022/04/01 20:18:16;;;;;;;1.10;0.50;;;1.30;99.90;;;;;;5094339;28;20051;-86
2022/04/01 20:21:35;;;;;;;2.67;0.70;;;1.30;99.90;;;;;;5074831;28;20070;-86
2022/04/01 20:24:55;;;;;;;;;;;;;;;;;;;;;
2022/04/01 20:28:09;;;;;;;;;;;;;;;;;;;;;
2022/04/01 20:31:29;;;;;;;;;;;;;;;;;;;;;
2022/04/01 20:35:08;;;;;;;2.70;0.80;;;1.20;99.90;;;;;;5093898;28;20040;-87
2022/04/01 20:38:42;;;;;;;;;;;;;;;;;;;;;
2022/04/01 20:42:04;;;;;;;1.38;0.70;;;1.20;99.90;;;;;;5051035;28;20076;-88
2022/04/01 20:44:34;;;;;;;1.55;0.70;;;1.20;99.90;;;;;;5048962;28;20061;-86
2022/04/01 20:47:03;;;;;;;0.93;0.60;;;1.10;99.90;;;;;;5052417;28;20091;-87
2022/04/01 20:56:33;;;;;;;3.30;1.42;;;1.00;99.90;;;;;;5012883;28;20416;-89
2022/04/01 20:59:00;;;;;;;1.95;1.00;;;1.00;99.90;;;;;;5012326;28;20037;-88
2022/04/01 21:01:59;;;;;;;2.20;0.85;;;1.00;99.90;;;;;;5012064;28;20046;-88
2022/04/01 21:04:42;;;;;;;1.55;0.73;;;1.00;99.90;;;;;;5012283;28;20127;-87
2022/04/01 21:07:37;;;;;;;;;;;;;;;;;;;;;
2022/04/01 21:10:48;;;;;;;;;;;;;;;;;;;;;
2022/04/01 21:14:09;;;;;;;;;;;;;;;;;;;;;
2022/04/01 21:17:07;;;;;;;2.10;0.65;;;1.00;99.90;;;;;;5010982;28;20074;-89
2022/04/01 21:19:53;;;;;;;3.25;0.80;;;1.00;99.90;;;;;;5011630;28;20494;-89
2022/04/01 21:23:24;;;;;;;;;;;;;;;;;;;;;
2022/04/01 21:30:23;;;;;;;2.17;0.52;;;0.90;99.90;;;;;;5054890;28;20465;-86
2022/04/01 21:33:48;;;;;;;;;;;;;;;;;;;;;
2022/04/01 21:48:31;;;;;;;;;;;;;;;;;;;;;
2022/04/01 21:52:10;;;;;;;1.95;0.90;;;0.90;99.90;;;;;;5086807;28;20101;-85
2022/04/01 21:55:34;;;;;;;4.32;0.90;;;0.80;99.90;;;;;;5090102;28;20148;-84
2022/04/01 21:59:38;;;;;;;;;;;;;;;;;;;;;
2022/04/01 22:02:42;;;;;;;2.88;0.70;;;0.80;99.90;;;;;;5013287;28;20057;-86
2022/04/01 22:06:20;;;;;;;1.52;0.75;;;1.30;99.90;;;;;;4969882;28;20058;-86
2022/04/01 22:13:53;;;;;;;2.85;0.70;;;0.80;99.90;;;;;;4971870;28;20133;-86
2022/04/01 22:17:15;;;;;;;1.55;0.70;;;1.50;99.90;;;;;;4968485;28;20444;-85
2022/04/01 22:20:40;;;;;;;;;;;;;;;;;;;;;
2022/04/01 22:23:45;;;;;;;1.55;0.82;;;0.70;99.90;;;;;;4966166;28;20472;-86
2022/04/01 22:31:07;;;;;;;1.55;0.75;;;0.70;99.90;;;;;;4971147;28;20177;-84
2022/04/01 22:34:39;;;;;;;;;;;;;;;;;;;;;
2022/04/01 22:42:27;;;;;;;1.88;1.05;;;0.30;99.90;;;;;;4935028;28;20453;-85
2022/04/01 22:45:43;;;;;;;3.03;0.85;;;-0.10;99.90;;;;;;4853585;29;20064;-84
2022/04/01 22:49:10;;;;;;;;;;;;;;;;;;;;;
2022/04/01 22:52:30;;;;;;;;;;;;;;;;;;;;;
2022/04/01 23:00:24;;;;;;;;;;;;;;;;;;;;;
2022/04/01 23:04:07;;;;;;;;;;;;;;;;;;;;;
2022/04/01 23:07:24;;;;;;;2.05;0.60;;;1.00;99.90;;;;;;4710465;30;20120;-84
2022/04/01 23:10:34;;;;;;;;;;;;;;;;;;;;;
2022/04/01 23:13:43;;;;;;;1.70;0.80;;;1.30;99.90;;;;;;4658734;30;20093;-84
2022/04/01 23:20:43;;;;;;;3.25;0.85;;;0.40;99.90;;;;;;4739285;29;20047;-85
2022/04/01 23:24:22;;;;;;;;;;;;;;;;;;;;;
2022/04/01 23:42:46;;;;;;;;;;;;;;;;;;;;;
2022/04/01 23:46:05;;;;;;;1.90;0.70;;;0.20;99.90;;;;;;4842403;29;20149;-85
2022/04/01 23:49:36;;;;;;;;;;;;;;;;;;;;;
2022/04/01 23:53:10;;;;;;;0.50;0.50;;;0.10;99.90;;;;;;4845949;29;20061;-85
